Time;durP1;ratioP1;P1;durP2;ratioP2;P2;SDS_P1;SDS_P2;PMS_P1;PMS_P2;Temp;Humidity;BMP_temperature;BMP_pressure;BME280_temperature;BME280_humidity;BME280_pressure;Samples;Min_cycle;Max_cycle;Signal;HPM_P1;HPM_P2
2022/12/25 00:00:30;;;;;;;;;;;;;;;26.12;43.99;94392.13;4982413;28;9409;-64
2022/12/25 00:03:05;;;;;;;;;;;;;;;26.13;44.12;94393.63;4972111;28;7046;-63
2022/12/25 00:05:46;;;;;;;;;;;;;;;26.12;44.12;94394.91;4972320;28;7308;-63
2022/12/25 00:08:26;;;;;;;;;;;;;;;26.11;43.89;94385.88;4958413;28;7065;-62
2022/12/25 00:11:29;;;;;;;;;;;;;;;26.13;44.52;94374.31;4950842;28;7201;-63
2022/12/25 00:14:06;;;;;;;;;;;;;;;26.14;43.78;94370.31;4968154;28;7048;-63
2022/12/25 00:16:39;;;;;;;;;;;;;;;26.11;44.42;94372.09;4974362;28;7129;-62
2022/12/25 00:19:21;;;;;;;;;;;;;;;26.12;44.11;94372.84;4957808;28;7677;-63
2022/12/25 00:22:02;;;;;;;;;;;;;;;26.11;43.72;94372.09;4958381;28;7152;-62
2022/12/25 00:24:50;;;;;;;;;;;;;;;26.13;44.04;94377.84;4982691;28;9351;-63
2022/12/25 00:27:16;;;;;;;;;;;;;;;26.14;44.62;94387.59;5009171;28;9142;-63
2022/12/25 00:29:42;;;;;;;;;;;;;;;26.15;43.77;94382.81;4995932;28;8227;-62
2022/12/25 00:32:10;;;;;;;;;;;;;;;26.16;43.62;94378.81;4996065;28;8511;-63
2022/12/25 00:34:40;;;;;;;;;;;;;;;26.15;43.70;94361.53;4994588;28;9627;-63
2022/12/25 00:37:08;;;;;;;;;;;;;;;26.13;44.14;94364.06;4991528;28;9097;-62
2022/12/25 00:39:43;;;;;;;;;;;;;;;26.15;43.70;94367.03;4986536;28;7892;-63
2022/12/25 00:42:19;;;;;;;;;;;;;;;26.13;43.99;94366.81;5010912;28;9178;-62
2022/12/25 00:44:47;;;;;;;;;;;;;;;26.12;44.18;94370.81;5008757;28;7338;-62
2022/12/25 00:47:17;;;;;;;;;;;;;;;26.14;43.56;94384.09;5008241;28;7358;-62
2022/12/25 00:49:45;;;;;;;;;;;;;;;26.13;44.34;94380.59;4991360;28;7217;-63
2022/12/25 00:52:26;;;;;;;;;;;;;;;26.15;44.06;94380.06;5012993;28;8957;-63
2022/12/25 00:55:00;;;;;;;;;;;;;;;26.13;43.80;94368.81;4993037;28;7267;-63
2022/12/25 00:57:29;;;;;;;;;;;;;;;26.14;44.66;94371.03;4985064;28;7300;-63
2022/12/25 01:00:01;;;;;;;;;;;;;;;26.13;44.25;94366.06;5010839;28;7441;-63
2022/12/25 01:02:37;;;;;;;;;;;;;;;26.13;43.83;94375.06;4994761;28;7283;-62
2022/12/25 01:05:15;;;;;;;;;;;;;;;26.11;43.71;94369.34;4998479;28;7020;-62
2022/12/25 01:07:43;;;;;;;;;;;;;;;26.14;43.72;94373.81;4997328;28;7047;-62
2022/12/25 01:10:22;;;;;;;;;;;;;;;26.12;44.12;94372.84;4995306;28;7462;-63
2022/12/25 01:12:50;;;;;;;;;;;;;;;26.16;43.86;94365.03;4995362;28;9050;-63
2022/12/25 01:15:27;;;;;;;;;;;;;;;26.15;43.93;94366.28;4995701;28;7212;-63
2022/12/25 01:17:59;;;;;;;;;;;;;;;26.15;43.94;94360.78;5010217;28;7820;-62
2022/12/25 01:20:32;;;;;;;;;;;;;;;26.15;43.97;94356.00;4993054;28;7570;-63
2022/12/25 01:23:00;;;;;;;;;;;;;;;26.14;43.63;94362.78;5011858;28;7924;-63
2022/12/25 01:25:29;;;;;;;;;;;;;;;26.15;43.77;94361.53;4994575;28;7814;-63
2022/12/25 01:27:59;;;;;;;;;;;;;;;26.14;44.02;94362.06;5010545;28;7362;-62
2022/12/25 01:30:25;;;;;;;;;;;;;;;26.19;43.92;94371.53;4987662;28;7284;-63
2022/12/25 01:32:51;;;;;;;;;;;;;;;26.16;44.15;94367.78;4996075;28;7031;-62
2022/12/25 01:35:27;;;;;;;;;;;;;;;26.15;44.43;94367.03;4995227;28;7243;-60
2022/12/25 01:38:06;;;;;;;;;;;;;;;26.13;44.13;94360.53;5010107;28;7195;-63
2022/12/25 01:40:41;;;;;;;;;;;;;;;26.13;43.93;94347.50;5009782;28;9168;-63
2022/12/25 01:43:21;;;;;;;;;;;;;;;26.12;43.84;94348.03;4991961;28;9294;-63
2022/12/25 01:45:48;;;;;;;;;;;;;;;26.13;44.24;94342.00;5007877;28;8692;-62
2022/12/25 01:48:21;;;;;;;;;;;;;;;26.11;43.60;94352.78;4994957;28;7064;-62
2022/12/25 01:50:57;;;;;;;;;;;;;;;26.12;44.07;94346.00;4985257;28;7638;-62
2022/12/25 01:53:26;;;;;;;;;;;;;;;26.12;43.38;94348.03;5006611;28;7022;-62
2022/12/25 01:55:59;;;;;;;;;;;;;;;26.11;43.71;94344.53;4990217;28;7439;-61
2022/12/25 01:58:32;;;;;;;;;;;;;;;26.09;43.65;94344.28;4993042;28;8547;-62
2022/12/25 02:00:59;;;;;;;;;;;;;;;26.10;43.83;94343.00;4990737;28;7262;-62
2022/12/25 02:03:28;;;;;;;;;;;;;;;26.10;43.94;94332.00;4989783;28;7177;-61
2022/12/25 02:05:54;;;;;;;;;;;;;;;26.08;43.69;94325.47;5004202;28;9378;-63
2022/12/25 02:08:22;;;;;;;;;;;;;;;26.08;44.12;94328.22;4990382;28;7126;-62
2022/12/25 02:10:48;;;;;;;;;;;;;;;26.08;43.97;94334.53;4999007;28;7700;-62
2022/12/25 02:13:20;;;;;;;;;;;;;;;26.08;43.46;94339.25;4989576;28;7531;-63
2022/12/25 02:16:18;;;;;;;;;;;;;;;26.10;44.21;94337.50;4992012;28;8477;-63
2022/12/25 02:19:02;;;;;;;;;;;;;;;26.08;43.67;94334.53;4992234;28;7042;-63
2022/12/25 02:22:07;;;;;;;;;;;;;;;26.09;43.86;94341.53;5017648;28;7639;-63
2022/12/25 02:24:56;;;;;;;;;;;;;;;26.09;43.40;94335.28;5002796;28;7100;-63
2022/12/25 02:27:43;;;;;;;;;;;;;;;26.10;43.97;94339.50;5004381;28;7248;-62
2022/12/25 02:30:11;;;;;;;;;;;;;;;26.09;44.21;94335.28;4989501;28;9255;-62
2022/12/25 02:35:54;;;;;;;;;;;;;;;26.09;43.72;94335.28;4984091;28;7051;-64
2022/12/25 02:38:32;;;;;;;;;;;;;;;26.07;44.14;94329.50;4998304;28;7673;-62
2022/12/25 02:41:10;;;;;;;;;;;;;;;26.08;44.06;94331.75;4989722;28;7411;-62
2022/12/25 03:07:22;;;;;;;;;;;;;;;26.03;43.94;94315.97;4993160;28;7458;-61
2022/12/25 03:13:23;;;;;;;;;;;;;;;26.03;43.40;94323.53;4988556;28;7361;-62
2022/12/25 03:18:57;;;;;;;;;;;;;;;26.01;43.50;94310.25;4992618;28;7605;-63
2022/12/25 03:27:11;;;;;;;;;;;;;;;26.03;44.02;94304.22;4990041;28;9388;-63
2022/12/25 03:33:04;;;;;;;;;;;;;;;26.02;44.07;94313.75;4994536;28;7172;-62
2022/12/25 03:35:49;;;;;;;;;;;;;;;25.98;44.06;94303.03;4952491;28;7047;-62
2022/12/25 04:38:34;;;;;;;;;;;;;;;25.91;43.82;94302.84;4915919;29;9299;-61
2022/12/25 04:41:01;;;;;;;;;;;;;;;25.91;43.98;94302.84;4936025;28;7307;-62
2022/12/25 04:43:27;;;;;;;;;;;;;;;25.92;43.60;94299.56;4989268;28;9513;-61
2022/12/25 04:45:57;;;;;;;;;;;;;;;25.91;43.91;94300.81;4991232;28;7031;-62
2022/12/25 04:48:32;;;;;;;;;;;;;;;25.91;44.07;94300.81;5006163;28;7142;-63
2022/12/25 04:51:21;;;;;;;;;;;;;;;25.92;43.73;94296.81;4995238;28;9694;-62
2022/12/25 04:53:48;;;;;;;;;;;;;;;25.93;43.97;94305.81;4992716;28;7297;-63
2022/12/25 04:56:18;;;;;;;;;;;;;;;25.93;43.94;94308.56;5007627;28;7221;-63
2022/12/25 04:58:49;;;;;;;;;;;;;;;25.93;43.97;94303.81;4993834;28;8513;-62
2022/12/25 05:01:45;;;;;;;;;;;;;;;25.94;43.37;94302.56;4994233;28;9001;-63
2022/12/25 05:04:14;;;;;;;;;;;;;;;25.94;43.44;94301.81;4953812;28;7258;-62
2022/12/25 05:06:49;;;;;;;;;;;;;;;25.92;43.83;94298.81;4953139;28;7263;-62
2022/12/25 05:09:26;;;;;;;;;;;;;;;25.91;43.10;94300.81;4951523;28;7270;-63
2022/12/25 05:11:51;;;;;;;;;;;;;;;25.92;43.84;94310.59;4937415;28;7034;-63
2022/12/25 05:14:31;;;;;;;;;;;;;;;25.90;43.37;94296.56;4936237;28;7073;-63
2022/12/25 05:16:59;;;;;;;;;;;;;;;25.89;43.68;94295.09;4928910;28;7027;-64
2022/12/25 05:19:35;;;;;;;;;;;;;;;25.88;43.48;94295.59;4937389;28;7110;-62
2022/12/25 05:22:03;;;;;;;;;;;;;;;25.89;43.79;94292.34;4953618;28;7400;-61
2022/12/25 05:24:33;;;;;;;;;;;;;;;25.88;43.74;94293.56;4948329;28;7272;-62
2022/12/25 05:27:01;;;;;;;;;;;;;;;25.86;43.70;94284.34;4936335;28;7033;-62
2022/12/25 05:29:32;;;;;;;;;;;;;;;25.87;44.03;94292.09;4944098;28;10511;-64
2022/12/25 05:31:58;;;;;;;;;;;;;;;25.89;43.93;94289.56;4950905;28;7520;-63
2022/12/25 05:34:26;;;;;;;;;;;;;;;25.89;43.52;94284.06;4937656;28;7033;-64
2022/12/25 05:36:55;;;;;;;;;;;;;;;25.89;43.88;94283.31;4948040;28;7353;-64
2022/12/25 05:39:23;;;;;;;;;;;;;;;25.90;43.79;94288.28;4935935;28;7244;-63
2022/12/25 05:41:50;;;;;;;;;;;;;;;25.90;43.88;94280.03;4992800;28;9255;-62
2022/12/25 05:44:45;;;;;;;;;;;;;;;25.84;43.52;94278.59;4993044;28;9010;-64
2022/12/25 05:47:21;;;;;;;;;;;;;;;25.87;44.19;94272.81;4916466;29;9208;-63
2022/12/25 05:49:49;;;;;;;;;;;;;;;25.88;43.71;94271.53;4930815;28;8992;-63
2022/12/25 05:52:17;;;;;;;;;;;;;;;25.87;43.87;94272.06;4924595;29;9224;-64
2022/12/25 05:54:55;;;;;;;;;;;;;;;25.86;43.82;94268.56;4939582;28;7257;-63
2022/12/25 05:57:22;;;;;;;;;;;;;;;25.85;43.68;94269.81;4932594;28;9994;-63
2022/12/25 06:00:23;;;;;;;;;;;;;;;25.89;43.27;94259.25;4931466;29;7266;-63
2022/12/25 06:02:58;;;;;;;;;;;;;;;25.88;43.68;94255.00;4917903;29;7220;-64
2022/12/25 06:05:26;;;;;;;;;;;;;;;25.91;43.56;94255.97;4887491;29;7314;-63
2022/12/25 06:07:55;;;;;;;;;;;;;;;25.92;43.46;94254.72;4906042;29;7203;-64
2022/12/25 06:10:30;;;;;;;;;;;;;;;25.89;43.27;94245.50;4911900;29;9071;-63
2022/12/25 06:12:58;;;;;;;;;;;;;;;25.90;43.69;94241.44;4912637;29;8254;-64
2022/12/25 06:15:28;;;;;;;;;;;;;;;25.90;43.88;94244.22;4909138;29;9083;-63
2022/12/25 06:17:54;;;;;;;;;;;;;;;25.89;44.09;94250.25;4893872;29;7486;-63
2022/12/25 06:20:31;;;;;;;;;;;;;;;25.81;43.62;94243.81;4913646;29;7259;-63
2022/12/25 06:22:58;;;;;;;;;;;;;;;25.75;43.87;94238.34;4902044;28;7389;-63
2022/12/25 06:25:33;;;;;;;;;;;;;;;25.70;44.04;94241.91;4976126;28;7093;-62
2022/12/25 06:28:01;;;;;;;;;;;;;;;25.70;43.86;94239.16;4952898;28;8993;-63
2022/12/25 06:30:27;;;;;;;;;;;;;;;25.70;44.23;94236.41;4971040;28;7299;-63
2022/12/25 06:32:55;;;;;;;;;;;;;;;25.67;43.83;94234.69;4970111;28;7284;-63
2022/12/25 06:35:23;;;;;;;;;;;;;;;25.66;44.44;94235.94;4954295;28;7290;-63
2022/12/25 06:37:51;;;;;;;;;;;;;;;25.62;44.43;94227.19;5002715;28;7252;-60
2022/12/25 06:40:18;;;;;;;;;;;;;;;25.61;44.15;94228.47;5008125;28;8750;-64
2022/12/25 06:42:44;;;;;;;;;;;;;;;25.61;44.66;94231.22;4989575;28;7243;-63
2022/12/25 06:45:11;;;;;;;;;;;;;;;25.62;44.29;94227.19;5008701;28;8441;-62
2022/12/25 06:47:41;;;;;;;;;;;;;;;25.65;44.67;94226.19;4991173;28;7058;-64
2022/12/25 06:50:10;;;;;;;;;;;;;;;25.65;44.27;94228.94;4991200;28;7270;-62
2022/12/25 06:52:36;;;;;;;;;;;;;;;25.68;44.24;94222.41;5007441;28;7311;-63
2022/12/25 06:55:04;;;;;;;;;;;;;;;25.67;44.21;94225.66;4991606;28;7283;-63
2022/12/25 06:57:35;;;;;;;;;;;;;;;25.64;44.43;94227.47;4991735;28;7339;-63
2022/12/25 07:00:10;;;;;;;;;;;;;;;25.62;44.66;94227.19;5007683;28;7111;-63
2022/12/25 07:02:48;;;;;;;;;;;;;;;25.63;44.21;94212.19;4985569;28;7371;-63
2022/12/25 07:05:14;;;;;;;;;;;;;;;25.67;44.03;94212.63;5002371;28;7298;-62
2022/12/25 07:07:40;;;;;;;;;;;;;;;25.67;44.58;94212.63;4989249;28;10233;-63
2022/12/25 07:10:06;;;;;;;;;;;;;;;25.71;44.77;94218.59;4994166;28;7020;-62
2022/12/25 07:12:33;;;;;;;;;;;;;;;25.74;44.19;94223.09;5006686;28;9268;-62
2022/12/25 07:15:01;;;;;;;;;;;;;;;25.72;43.71;94213.84;4995255;28;7043;-62
2022/12/25 07:17:27;;;;;;;;;;;;;;;25.69;44.84;94215.63;4984270;28;8863;-62
2022/12/25 07:20:20;;;;;;;;;;;;;;;25.75;44.13;94210.06;5001846;28;7193;-63
2022/12/25 07:23:06;;;;;;;;;;;;;;;25.75;44.35;94210.78;4953806;28;9476;-61
2022/12/25 07:25:35;;;;;;;;;;;;;;;25.77;44.49;94207.56;4953102;28;7286;-62
2022/12/25 07:28:01;;;;;;;;;;;;;;;25.79;44.29;94203.00;4953425;28;9129;-61
2022/12/25 07:30:27;;;;;;;;;;;;;;;25.82;44.02;94210.22;4950619;28;8963;-63
2022/12/25 07:32:56;;;;;;;;;;;;;;;25.83;44.00;94208.97;4967275;28;6967;-63
2022/12/25 07:35:22;;;;;;;;;;;;;;;25.84;44.44;94204.94;4963829;28;7259;-62
2022/12/25 07:38:17;;;;;;;;;;;;;;;25.87;43.63;94203.19;4948985;28;9622;-63
2022/12/25 07:40:55;;;;;;;;;;;;;;;25.83;44.21;94208.97;4915602;29;9000;-63
2022/12/25 07:43:30;;;;;;;;;;;;;;;25.86;44.51;94207.22;4912917;29;7301;-62
2022/12/25 07:45:58;;;;;;;;;;;;;;;25.86;43.91;94207.94;4915446;29;7057;-62
2022/12/25 07:48:28;;;;;;;;;;;;;;;25.86;44.54;94210.69;4913339;29;7250;-63
2022/12/25 07:50:59;;;;;;;;;;;;;;;25.87;44.33;94201.16;4915024;29;7262;-64
2022/12/25 07:53:28;;;;;;;;;;;;;;;25.87;44.44;94203.94;4912633;29;7140;-63
2022/12/25 07:56:06;;;;;;;;;;;;;;;25.88;43.98;94210.91;4920745;29;7232;-63
2022/12/25 07:58:47;;;;;;;;;;;;;;;25.89;44.03;94201.41;4928269;28;7846;-63
2022/12/25 08:01:25;;;;;;;;;;;;;;;25.87;44.61;94203.94;4962747;28;7293;-63
2022/12/25 08:03:59;;;;;;;;;;;;;;;25.90;44.02;94216.66;4968004;28;8761;-63
2022/12/25 08:06:31;;;;;;;;;;;;;;;25.92;44.25;94210.66;4958356;28;7363;-61
2022/12/25 08:09:05;;;;;;;;;;;;;;;25.92;43.98;94208.66;4944372;28;7219;-63
2022/12/25 08:11:31;;;;;;;;;;;;;;;25.92;44.13;94200.38;4961506;28;7148;-62
2022/12/25 08:14:30;;;;;;;;;;;;;;;25.92;44.03;94205.88;4960795;28;9043;-62
2022/12/25 08:17:04;;;;;;;;;;;;;;;25.94;44.10;94208.13;4924952;28;7441;-64
2022/12/25 08:19:41;;;;;;;;;;;;;;;25.93;43.89;94212.88;4948881;28;9281;-63
2022/12/25 08:22:19;;;;;;;;;;;;;;;25.95;43.95;94218.63;4949587;28;7613;-63
2022/12/25 08:24:57;;;;;;;;;;;;;;;25.93;44.16;94218.38;4931948;28;7047;-64
2022/12/25 08:27:24;;;;;;;;;;;;;;;25.91;43.39;94226.44;4954230;28;7228;-62
2022/12/25 08:29:50;;;;;;;;;;;;;;;25.92;43.27;94230.69;4946643;28;7006;-64
2022/12/25 08:32:21;;;;;;;;;;;;;;;25.90;44.06;94238.69;4953162;28;7187;-63
2022/12/25 08:34:48;;;;;;;;;;;;;;;25.92;43.36;94240.97;4934137;28;7329;-64
2022/12/25 08:37:31;;;;;;;;;;;;;;;25.94;43.30;94241.19;4936095;28;7379;-64
2022/12/25 08:40:10;;;;;;;;;;;;;;;25.92;43.38;94243.72;4951595;28;7285;-64
2022/12/25 08:43:09;;;;;;;;;;;;;;;25.92;44.03;94247.22;4936306;28;7252;-62
2022/12/25 08:45:37;;;;;;;;;;;;;;;25.91;44.15;94242.22;4914040;29;7278;-63
2022/12/25 08:48:10;;;;;;;;;;;;;;;25.91;43.88;94247.72;4930581;29;7460;-62
2022/12/25 08:50:36;;;;;;;;;;;;;;;25.93;43.93;94245.19;4932923;28;9662;-63
2022/12/25 08:53:05;;;;;;;;;;;;;;;25.96;43.27;94255.94;4928388;28;8407;-62
2022/12/25 08:55:31;;;;;;;;;;;;;;;25.96;43.18;94255.19;4935187;28;7206;-63
2022/12/25 08:58:06;;;;;;;;;;;;;;;25.99;43.54;94251.41;4935576;28;7671;-62
2022/12/25 09:00:41;;;;;;;;;;;;;;;26.02;43.39;94250.38;4934568;28;7314;-63
2022/12/25 09:03:08;;;;;;;;;;;;;;;26.01;43.24;94257.88;4931718;28;6916;-61
2022/12/25 09:05:35;;;;;;;;;;;;;;;26.01;43.37;94248.88;4951215;28;7616;-62
2022/12/25 09:08:03;;;;;;;;;;;;;;;26.05;42.75;94252.09;4950903;28;7271;-62
2022/12/25 09:10:42;;;;;;;;;;;;;;;26.04;43.05;94248.59;4954970;28;7023;-63
2022/12/25 09:13:40;;;;;;;;;;;;;;;26.04;43.47;94259.63;4948992;28;8510;-60
2022/12/25 09:16:18;;;;;;;;;;;;;;;26.02;42.82;94267.66;4956636;28;8510;-63
2022/12/25 09:18:51;;;;;;;;;;;;;;;26.01;42.95;94265.41;4944414;28;9065;-63
2022/12/25 09:21:21;;;;;;;;;;;;;;;26.03;42.37;94260.88;4963983;28;7169;-63
2022/12/25 09:23:56;;;;;;;;;;;;;;;26.00;42.90;94256.41;5007537;28;7263;-61
2022/12/25 09:26:52;;;;;;;;;;;;;;;26.01;43.31;94254.41;4993184;28;7204;-62
2022/12/25 09:29:20;;;;;;;;;;;;;;;26.00;43.47;94253.66;4954786;28;8338;-63
2022/12/25 09:31:49;;;;;;;;;;;;;;;26.01;42.95;94257.16;4964786;28;8718;-63
2022/12/25 09:34:14;;;;;;;;;;;;;;;26.02;43.43;94256.63;4970868;28;7192;-64
2022/12/25 09:36:40;;;;;;;;;;;;;;;26.01;43.36;94252.38;4971421;28;7136;-63
2022/12/25 09:39:19;;;;;;;;;;;;;;;26.04;42.95;94261.63;4969953;28;9178;-63
2022/12/25 09:42:03;;;;;;;;;;;;;;;26.05;43.54;94261.13;4958643;28;8315;-62
2022/12/25 09:44:44;;;;;;;;;;;;;;;26.06;42.97;94257.09;4966057;28;7440;-63
2022/12/25 09:47:34;;;;;;;;;;;;;;;26.07;43.48;94255.84;4968152;28;6874;-63
2022/12/25 09:50:03;;;;;;;;;;;;;;;26.08;43.46;94268.38;4955035;28;9035;-59
2022/12/25 09:52:47;;;;;;;;;;;;;;;26.07;43.05;94261.34;4962501;28;7349;-62
2022/12/25 09:55:25;;;;;;;;;;;;;;;26.10;43.63;94259.56;4974328;28;7050;-62
2022/12/25 09:57:59;;;;;;;;;;;;;;;26.09;43.51;94247.81;4969607;28;9280;-62
2022/12/25 10:00:53;;;;;;;;;;;;;;;26.07;43.13;94250.31;4952606;28;7041;-62
2022/12/25 10:03:27;;;;;;;;;;;;;;;26.10;43.22;94246.53;4965587;28;7228;-61
2022/12/25 10:06:44;;;;;;;;;;;;;;;26.11;43.92;94242.53;4975196;28;7034;-62
2022/12/25 10:09:19;;;;;;;;;;;;;;;26.11;43.30;94252.81;4931901;29;7147;-62
2022/12/25 10:12:06;;;;;;;;;;;;;;;26.13;43.28;94247.53;4928294;29;7150;-62
2022/12/25 10:15:03;;;;;;;;;;;;;;;26.11;43.29;94242.53;4914423;29;7454;-62
2022/12/25 10:17:40;;;;;;;;;;;;;;;26.12;43.25;94230.22;4929706;29;7043;-62
2022/12/25 10:20:48;;;;;;;;;;;;;;;26.12;42.94;94241.25;4925925;29;7334;-62
2022/12/25 10:23:22;;;;;;;;;;;;;;;26.10;43.89;94246.53;4877200;29;7711;-62
2022/12/25 10:25:52;;;;;;;;;;;;;;;26.08;43.63;94251.81;4875675;29;7178;-62
2022/12/25 10:28:52;;;;;;;;;;;;;;;26.07;43.64;94247.56;4885440;29;6861;-62
2022/12/25 10:31:28;;;;;;;;;;;;;;;26.09;43.45;94253.34;4824427;29;7261;-61
2022/12/25 10:33:55;;;;;;;;;;;;;;;26.08;43.54;94246.31;4816126;29;7033;-62
2022/12/25 10:36:24;;;;;;;;;;;;;;;26.07;43.52;94244.06;4836939;29;9355;-61
2022/12/25 10:38:59;;;;;;;;;;;;;;;26.06;43.13;94257.09;4831425;29;7102;-62
2022/12/25 10:41:34;;;;;;;;;;;;;;;26.07;43.95;94249.56;4834747;29;7037;-63
2022/12/25 10:44:18;;;;;;;;;;;;;;;26.07;43.83;94253.06;4823323;29;9329;-61
2022/12/25 10:46:56;;;;;;;;;;;;;;;26.04;42.93;94254.09;4855517;29;7557;-61
2022/12/25 10:49:36;;;;;;;;;;;;;;;26.02;42.94;94253.88;4872449;29;7407;-63
2022/12/25 10:52:23;;;;;;;;;;;;;;;26.02;43.45;94248.38;4865801;29;7259;-62
2022/12/25 10:55:12;;;;;;;;;;;;;;;26.00;43.09;94237.09;4847892;29;8405;-62
2022/12/25 10:58:02;;;;;;;;;;;;;;;26.03;43.59;94229.81;4857585;29;8198;-61
2022/12/25 11:00:42;;;;;;;;;;;;;;;26.01;43.38;94229.59;4924180;29;7237;-61
2022/12/25 11:03:32;;;;;;;;;;;;;;;26.03;43.02;94227.78;4908231;29;7285;-62
2022/12/25 11:06:30;;;;;;;;;;;;;;;26.04;43.06;94221.03;4930057;29;7153;-62
2022/12/25 11:09:01;;;;;;;;;;;;;;;26.04;43.41;94223.03;4929859;28;7046;-62
2022/12/25 11:11:29;;;;;;;;;;;;;;;26.01;43.78;94213.06;4928257;28;9259;-62
2022/12/25 11:13:59;;;;;;;;;;;;;;;25.99;43.71;94212.84;4911382;29;7645;-62
2022/12/25 11:16:30;;;;;;;;;;;;;;;26.00;43.10;94222.56;4914225;29;8991;-62
2022/12/25 11:18:58;;;;;;;;;;;;;;;26.00;43.41;94217.81;4914016;29;7068;-63
2022/12/25 11:21:36;;;;;;;;;;;;;;;26.01;43.66;94211.03;4912148;29;9362;-63
2022/12/25 11:24:41;;;;;;;;;;;;;;;26.01;43.92;94208.28;4931583;28;7273;-63
2022/12/25 11:27:25;;;;;;;;;;;;;;;26.01;44.13;94213.78;4929169;29;8759;-63
2022/12/25 11:30:02;;;;;;;;;;;;;;;25.94;43.46;94214.38;4911565;29;7333;-63
2022/12/25 11:32:29;;;;;;;;;;;;;;;25.89;43.65;94215.19;4915260;29;7122;-62
2022/12/25 11:34:57;;;;;;;;;;;;;;;25.86;44.21;94218.94;4925267;29;8589;-63
2022/12/25 11:37:29;;;;;;;;;;;;;;;25.87;44.20;94225.22;4915478;29;7051;-63
2022/12/25 11:39:59;;;;;;;;;;;;;;;25.91;43.45;94222.91;4916092;29;7673;-64
2022/12/25 11:42:40;;;;;;;;;;;;;;;25.94;44.80;94214.38;4930044;29;7814;-63
2022/12/25 11:45:45;;;;;;;;;;;;;;;26.00;44.37;94209.53;4955375;28;7044;-63
2022/12/25 11:48:28;;;;;;;;;;;;;;;25.98;44.41;94208.56;4914881;29;9018;-62
2022/12/25 11:51:05;;;;;;;;;;;;;;;25.98;43.88;94198.31;4917778;29;9164;-62
2022/12/25 11:53:51;;;;;;;;;;;;;;;25.99;44.14;94193.53;4913407;29;9236;-63
2022/12/25 11:56:27;;;;;;;;;;;;;;;25.99;43.98;94188.75;4930481;28;7242;-64
2022/12/25 11:58:58;;;;;;;;;;;;;;;26.01;43.83;94191.00;4902128;29;7070;-63
2022/12/25 12:01:40;;;;;;;;;;;;;;;26.02;44.44;94176.69;4919092;29;7019;-62
2022/12/25 12:04:19;;;;;;;;;;;;;;;26.01;43.79;94169.69;4907307;29;7631;-62
2022/12/25 12:10:45;;;;;;;;;;;;;;;26.03;44.49;94163.69;4922318;28;7183;-63
2022/12/25 12:13:44;;;;;;;;;;;;;;;25.95;44.62;94166.25;4874662;29;7132;-63
2022/12/25 12:16:10;;;;;;;;;;;;;;;25.92;44.72;94167.31;4887816;29;7295;-60
2022/12/25 12:18:38;;;;;;;;;;;;;;;25.89;44.74;94157.31;4874894;29;7372;-63
2022/12/25 12:21:06;;;;;;;;;;;;;;;25.88;44.40;94161.31;4874729;29;7117;-64
2022/12/25 12:23:53;;;;;;;;;;;;;;;25.91;44.01;94154.78;4889935;29;8802;-63
2022/12/25 12:26:39;;;;;;;;;;;;;;;25.95;44.16;94158.00;4854648;29;9367;-63
2022/12/25 12:29:24;;;;;;;;;;;;;;;25.96;44.80;94158.75;4860391;29;7287;-63
2022/12/25 12:32:00;;;;;;;;;;;;;;;25.97;44.39;94160.97;4863093;29;7138;-63
2022/12/25 12:34:41;;;;;;;;;;;;;;;25.97;44.51;94174.75;4862604;29;9039;-62
2022/12/25 12:37:31;;;;;;;;;;;;;;;25.97;45.04;94169.22;4858227;29;7094;-62
2022/12/25 12:40:34;;;;;;;;;;;;;;;25.99;44.81;94177.00;4858849;29;7050;-63
2022/12/25 12:43:04;;;;;;;;;;;;;;;25.97;45.02;94166.47;4859525;29;7763;-62
2022/12/25 12:45:39;;;;;;;;;;;;;;;25.97;44.64;94158.22;4859475;29;7230;-63
2022/12/25 12:48:26;;;;;;;;;;;;;;;25.96;44.91;94167.75;4860218;29;7474;-62
2022/12/25 12:51:15;;;;;;;;;;;;;;;25.93;44.70;94159.75;4933926;28;7584;-62
2022/12/25 12:54:19;;;;;;;;;;;;;;;25.93;44.86;94157.75;4919610;29;9227;-63
2022/12/25 12:57:28;;;;;;;;;;;;;;;25.94;44.64;94162.03;4933223;28;9045;-63
2022/12/25 13:00:05;;;;;;;;;;;;;;;25.93;44.56;94146.75;4931189;29;9354;-63
2022/12/25 13:03:22;;;;;;;;;;;;;;;25.97;44.76;94158.22;4924031;28;9798;-63
2022/12/25 13:06:12;;;;;;;;;;;;;;;25.99;45.20;94171.50;5003716;28;7285;-63
2022/12/25 13:09:03;;;;;;;;;;;;;;;25.99;45.06;94166.72;5005376;28;7064;-63
2022/12/25 13:11:43;;;;;;;;;;;;;;;26.00;45.14;94172.97;5005805;28;7126;-63
2022/12/25 13:14:29;;;;;;;;;;;;;;;26.01;44.39;94174.47;5007514;28;7152;-62
2022/12/25 13:16:58;;;;;;;;;;;;;;;26.01;44.64;94164.19;4992094;28;7104;-63
2022/12/25 13:19:32;;;;;;;;;;;;;;;26.02;44.84;94168.44;5010862;28;7127;-64
2022/12/25 13:22:07;;;;;;;;;;;;;;;26.03;44.40;94177.47;4995583;28;9011;-63
2022/12/25 13:24:36;;;;;;;;;;;;;;;26.01;44.29;94186.22;5010345;28;7083;-63
2022/12/25 13:27:26;;;;;;;;;;;;;;;26.06;44.57;94199.19;4997959;28;8857;-62
2022/12/25 13:29:54;;;;;;;;;;;;;;;26.05;44.54;94200.47;4991929;28;7141;-63
2022/12/25 13:32:31;;;;;;;;;;;;;;;26.02;44.35;94207.03;5009148;28;7252;-63
2022/12/25 13:34:59;;;;;;;;;;;;;;;26.05;44.45;94211.50;5013117;28;7075;-62
2022/12/25 13:37:30;;;;;;;;;;;;;;;26.03;44.08;94227.78;5011539;28;7280;-63
2022/12/25 13:40:05;;;;;;;;;;;;;;;26.04;45.11;94226.53;4985532;28;10405;-63
2022/12/25 13:42:40;;;;;;;;;;;;;;;26.05;44.38;94208.00;4990779;28;7034;-64
2022/12/25 13:45:39;;;;;;;;;;;;;;;26.07;45.07;94206.22;4997916;28;9352;-62
2022/12/25 13:48:24;;;;;;;;;;;;;;;26.06;44.60;94215.75;4952438;28;7473;-62
2022/12/25 13:50:58;;;;;;;;;;;;;;;26.05;45.01;94210.75;4929379;28;7311;-63
2022/12/25 13:53:26;;;;;;;;;;;;;;;26.02;45.12;94220.03;4934731;28;7482;-61
2022/12/25 13:55:54;;;;;;;;;;;;;;;25.98;45.29;94212.09;4942184;28;9054;-61
2022/12/25 13:58:28;;;;;;;;;;;;;;;25.99;45.47;94199.06;4925011;28;7133;-63
2022/12/25 14:00:57;;;;;;;;;;;;;;;25.98;45.67;94200.31;4932895;28;7267;-62
2022/12/25 14:03:40;;;;;;;;;;;;;;;26.01;45.71;94202.75;4928912;28;7320;-64
2022/12/25 14:06:29;;;;;;;;;;;;;;;26.03;44.77;94200.22;4927885;28;9057;-62
2022/12/25 14:08:58;;;;;;;;;;;;;;;26.01;44.56;94213.78;4944222;28;7673;-62
2022/12/25 14:11:31;;;;;;;;;;;;;;;25.97;45.14;94207.81;4926253;28;7073;-63
2022/12/25 14:14:15;;;;;;;;;;;;;;;25.99;44.81;94205.28;4927857;29;9272;-63
2022/12/25 14:16:47;;;;;;;;;;;;;;;26.03;45.26;94194.72;4925222;28;7437;-61
2022/12/25 14:19:33;;;;;;;;;;;;;;;26.06;45.56;94196.44;4930346;28;7298;-63
2022/12/25 14:22:00;;;;;;;;;;;;;;;26.08;44.60;94213.25;4944830;28;9639;-62
2022/12/25 14:24:35;;;;;;;;;;;;;;;26.09;44.86;94205.72;4974871;28;7248;-63
2022/12/25 14:27:14;;;;;;;;;;;;;;;26.07;45.66;94224.75;5006025;28;7491;-62
2022/12/25 14:29:47;;;;;;;;;;;;;;;26.04;45.53;94228.53;5005706;28;7386;-62
2022/12/25 14:32:39;;;;;;;;;;;;;;;26.07;45.36;94228.28;5001488;28;9666;-60
2022/12/25 14:35:09;;;;;;;;;;;;;;;26.06;45.80;94224.00;5002706;28;7284;-61
2022/12/25 14:37:37;;;;;;;;;;;;;;;26.07;45.60;94241.28;5002544;28;7459;-62
2022/12/25 14:40:30;;;;;;;;;;;;;;;26.07;45.19;94236.53;5004446;28;7050;-62
2022/12/25 14:43:00;;;;;;;;;;;;;;;26.08;45.57;94257.34;5007649;28;9602;-62
2022/12/25 14:45:54;;;;;;;;;;;;;;;26.06;45.17;94239.78;5014526;28;7051;-63
2022/12/25 14:48:30;;;;;;;;;;;;;;;26.04;43.98;94245.84;4989074;28;7372;-62
2022/12/25 14:51:16;;;;;;;;;;;;;;;26.06;44.47;94254.31;5002692;28;7268;-63
2022/12/25 14:53:54;;;;;;;;;;;;;;;26.02;44.21;94270.41;5007358;28;8922;-63
2022/12/25 14:56:23;;;;;;;;;;;;;;;26.04;44.47;94267.88;4992613;28;7057;-62
2022/12/25 14:58:58;;;;;;;;;;;;;;;26.05;44.17;94266.63;5008613;28;7265;-61
2022/12/25 15:01:34;;;;;;;;;;;;;;;26.07;44.16;94261.34;5000195;28;7291;-62
2022/12/25 15:04:09;;;;;;;;;;;;;;;26.08;43.87;94253.81;5018896;28;7033;-62
2022/12/25 15:06:40;;;;;;;;;;;;;;;26.10;43.64;94249.28;5018417;28;7310;-62
2022/12/25 15:09:15;;;;;;;;;;;;;;;26.06;43.66;94240.53;4990747;28;9336;-59
2022/12/25 15:11:54;;;;;;;;;;;;;;;26.05;44.47;94250.09;5008523;28;8661;-62
2022/12/25 15:14:25;;;;;;;;;;;;;;;26.03;43.95;94260.88;5000706;28;9062;-61
2022/12/25 15:17:03;;;;;;;;;;;;;;;26.02;44.38;94267.66;4989356;28;7129;-63
2022/12/25 15:19:35;;;;;;;;;;;;;;;26.06;43.79;94262.59;4986298;28;7100;-63
2022/12/25 15:22:22;;;;;;;;;;;;;;;26.09;43.96;94252.56;4997500;28;9105;-61
2022/12/25 15:24:51;;;;;;;;;;;;;;;26.07;43.84;94255.06;5005422;28;7120;-60
2022/12/25 15:27:22;;;;;;;;;;;;;;;26.08;43.91;94254.59;5004676;28;8571;-62
2022/12/25 15:29:53;;;;;;;;;;;;;;;26.07;43.80;94247.56;5001802;28;7616;-60